Time;durP1;ratioP1;P1;durP2;ratioP2;P2;SDS_P1;SDS_P2;PMS_P1;PMS_P2;Temp;Humidity;BMP_temperature;BMP_pressure;BME280_temperature;BME280_humidity;BME280_pressure;Samples;Min_cycle;Max_cycle;Signal;HPM_P1;HPM_P2
2021/09/17 00:00:48;;;;;;;;;;;;;;;;;;;;;
2021/09/17 00:03:36;;;;;;;;;;;;;;;;;;;;;
2021/09/17 00:06:33;;;;;;;2.47;1.17;;;;;;;13.47;98.70;92465.97;4828375;29;20156;-92
2021/09/17 00:13:37;;;;;;;;;;;;;;;;;;;;;
2021/09/17 00:16:47;;;;;;;;;;;;;;;;;;;;;
2021/09/17 00:20:01;;;;;;;;;;;;;;;;;;;;;
2021/09/17 00:23:11;;;;;;;1.38;0.90;;;;;;;13.33;98.84;92455.56;4843911;29;20041;-91
2021/09/17 00:26:36;;;;;;;2.08;1.00;;;;;;;13.26;98.34;92455.97;4839969;29;20110;-92
2021/09/17 00:29:44;;;;;;;1.15;0.85;;;;;;;12.94;98.08;92408.97;4827521;29;20058;-93
2021/09/17 00:33:07;;;;;;;1.05;0.77;;;;;;;12.89;98.30;92409.88;4844330;29;20335;-92
2021/09/17 00:36:04;;;;;;;1.83;1.27;;;;;;;13.00;98.39;92420.91;4832616;29;20050;-92
2021/09/17 00:39:12;;;;;;;2.45;1.33;;;;;;;12.99;98.06;92430.66;4827255;29;20064;-93
2021/09/17 00:42:45;;;;;;;;;;;;;;;;;;;;;
2021/09/17 00:46:26;;;;;;;;;;;;;;;;;;;;;
2021/09/17 00:49:34;;;;;;;;;;;;;;;;;;;;;
2021/09/17 00:52:51;;;;;;;1.50;1.02;;;;;;;12.78;98.04;92395.44;4861934;29;20044;-92
2021/09/17 00:55:58;;;;;;;1.17;0.82;;;;;;;12.66;97.92;92378.38;4832112;29;20520;-93
2021/09/17 00:59:04;;;;;;;;;;;;;;;;;;;;;
2021/09/17 01:02:08;;;;;;;;;;;;;;;;;;;;;
2021/09/17 01:04:48;;;;;;;2.58;1.27;;;;;;;12.64;97.44;92377.13;4850156;29;20572;-93
2021/09/17 01:07:34;;;;;;;2.15;1.25;;;;;;;12.52;97.73;92367.19;4835716;29;20082;-92
2021/09/17 01:10:54;;;;;;;2.80;1.20;;;;;;;12.60;97.76;92386.69;4880022;29;20037;-92
2021/09/17 01:17:19;;;;;;;;;;;;;;;;;;;;;
2021/09/17 01:20:34;;;;;;;;;;;;;;;;;;;;;
2021/09/17 01:23:48;;;;;;;;;;;;;;;;;;;;;
2021/09/17 01:30:00;;;;;;;;;;;;;;;;;;;;;
2021/09/17 01:32:59;;;;;;;1.95;0.82;;;;;;;12.36;98.37;92358.13;4860287;29;20541;-94
2021/09/17 01:36:20;;;;;;;1.25;0.80;;;;;;;12.53;98.26;92392.38;4848964;29;20403;-92
2021/09/17 01:39:38;;;;;;;2.78;0.85;;;;;;;12.30;98.21;92352.25;4860553;29;20060;-94
2021/09/17 01:49:28;;;;;;;1.20;0.85;;;;;;;12.27;97.66;92335.25;4843435;29;20507;-92
2021/09/17 01:52:21;;;;;;;;;;;;;;;;;;;;;
2021/09/17 01:55:26;;;;;;;1.98;1.30;;;;;;;12.25;97.95;92339.25;4844892;29;20053;-92
2021/09/17 01:58:29;;;;;;;;;;;;;;;;;;;;;
2021/09/17 02:07:53;;;;;;;1.40;1.15;;;;;;;12.23;98.22;92344.78;4845725;29;20257;-93
2021/09/17 02:10:50;;;;;;;;;;;;;;;;;;;;;
2021/09/17 02:13:54;;;;;;;;;;;;;;;;;;;;;
2021/09/17 02:19:45;;;;;;;0.93;0.68;;;;;;;12.12;97.47;92337.47;4835576;29;20144;-93
2021/09/17 02:22:58;;;;;;;;;;;;;;;;;;;;;
2021/09/17 02:26:02;;;;;;;;;;;;;;;;;;;;;
2021/09/17 02:29:08;;;;;;;0.82;0.73;;;;;;;12.11;97.46;92334.03;4863780;29;20045;-92
2021/09/17 02:32:13;;;;;;;0.55;0.55;;;;;;;11.95;97.09;92304.75;4848787;29;20511;-93
2021/09/17 02:35:15;;;;;;;2.08;1.05;;;;;;;11.94;96.98;92307.72;4852516;29;20064;-91
2021/09/17 02:38:02;;;;;;;1.10;0.68;;;;;;;11.93;97.33;92295.66;4828683;29;20132;-92
2021/09/17 02:40:58;;;;;;;0.68;0.68;;;;;;;12.26;97.77;92349.44;4847538;29;20056;-91
2021/09/17 02:47:12;;;;;;;;;;;;;;;;;;;;;
2021/09/17 02:50:14;;;;;;;;;;;;;;;;;;;;;
2021/09/17 03:00:00;;;;;;;;;;;;;;;;;;;;;
2021/09/17 03:03:21;;;;;;;;;;;;;;;;;;;;;
2021/09/17 03:06:29;;;;;;;2.07;0.93;;;;;;;11.84;98.26;92283.25;4893795;29;20105;-92
2021/09/17 03:09:51;;;;;;;;;;;;;;;;;;;;;
2021/09/17 03:12:50;;;;;;;1.27;0.90;;;;;;;11.80;97.15;92266.53;4863658;29;20113;-92
2021/09/17 03:16:05;;;;;;;;;;;;;;;;;;;;;
2021/09/17 03:19:04;;;;;;;1.30;0.88;;;;;;;12.01;97.27;92297.56;4880672;29;20074;-92
2021/09/17 03:22:17;;;;;;;0.75;0.70;;;;;;;11.78;97.15;92260.06;4867550;29;20061;-93
2021/09/17 03:25:15;;;;;;;;;;;;;;;;;;;;;
2021/09/17 03:28:22;;;;;;;;;;;;;;;;;;;;;
2021/09/17 03:34:43;;;;;;;0.82;0.70;;;;;;;11.74;97.70;92267.72;4845282;29;20049;-93
2021/09/17 03:37:43;;;;;;;0.98;0.65;;;;;;;11.67;97.72;92249.78;4864879;29;20117;-93
2021/09/17 03:40:50;;;;;;;1.48;0.63;;;;;;;12.04;98.00;92304.81;4877179;29;20057;-92
2021/09/17 03:44:20;;;;;;;;;;;;;;;;;;;;;
2021/09/17 03:47:13;;;;;;;1.58;0.73;;;;;;;11.69;97.41;92260.00;4879052;29;20051;-93
2021/09/17 03:50:18;;;;;;;1.45;0.73;;;;;;;11.63;98.11;92242.81;4865133;29;20053;-93
2021/09/17 03:53:34;;;;;;;0.98;0.70;;;;;;;11.91;97.94;92292.53;4863338;29;20048;-92
2021/09/17 03:56:31;;;;;;;0.82;0.70;;;;;;;11.88;97.54;92283.44;4867747;29;20111;-93
2021/09/17 03:59:58;;;;;;;1.02;0.75;;;;;;;11.74;97.63;92256.47;4863539;29;20041;-93
2021/09/17 04:03:01;;;;;;;0.73;0.60;;;;;;;11.86;97.24;92281.06;4860631;29;20045;-94
2021/09/17 04:05:47;;;;;;;1.90;0.63;;;;;;;11.49;97.37;92234.25;4845534;29;20049;-93
2021/09/17 04:08:52;;;;;;;0.85;0.70;;;;;;;11.62;97.24;92254.38;4830401;29;20668;-93
2021/09/17 04:11:35;;;;;;;0.82;0.68;;;;;;;11.51;97.28;92247.84;4832459;29;20057;-93
2021/09/17 04:14:26;;;;;;;4.32;0.77;;;;;;;11.60;97.11;92264.41;4844864;29;20073;-93
2021/09/17 04:20:54;;;;;;;0.93;0.80;;;;;;;11.56;97.46;92260.81;4861592;29;20056;-92
2021/09/17 04:33:16;;;;;;;;;;;;;;;;;;;;;
2021/09/17 04:36:35;;;;;;;;;;;;;;;;;;;;;
2021/09/17 04:39:46;;;;;;;;;;;;;;;;;;;;;
2021/09/17 04:43:03;;;;;;;0.47;0.47;;;;;;;11.39;98.76;92236.03;4856093;29;20049;-93
2021/09/17 04:46:04;;;;;;;;;;;;;;;;;;;;;
2021/09/17 04:49:19;;;;;;;;;;;;;;;;;;;;;
2021/09/17 04:52:27;;;;;;;;;;;;;;;;;;;;;
2021/09/17 04:55:13;;;;;;;1.20;0.98;;;;;;;11.55;98.98;92252.19;4864994;29;20376;-90
2021/09/17 04:57:57;;;;;;;0.55;0.52;;;;;;;11.64;99.36;92262.72;4868682;29;20135;-90
2021/09/17 05:00:57;;;;;;;1.50;0.90;;;;;;;11.46;98.68;92230.38;4836967;29;20123;-90
2021/09/17 05:03:32;;;;;;;0.65;0.65;;;;;;;11.67;98.54;92259.50;4847022;29;20373;-90
2021/09/17 05:06:32;;;;;;;1.60;0.95;;;;;;;11.55;98.30;92249.56;4861228;29;20046;-92
2021/09/17 05:09:59;;;;;;;1.33;0.93;;;;;;;11.79;98.38;92285.97;4871822;29;20072;-90
2021/09/17 05:12:45;;;;;;;;;;;;;;;;;;;;;
2021/09/17 05:15:54;;;;;;;;;;;;;;;;;;;;;
2021/09/17 05:19:18;;;;;;;;;;;;;;;;;;;;;
2021/09/17 05:22:37;;;;;;;1.38;1.00;;;;;;;11.65;98.89;92253.78;4853932;29;20049;-92
2021/09/17 05:25:35;;;;;;;;;;;;;;;;;;;;;
2021/09/17 05:28:48;;;;;;;16.65;1.05;;;;;;;12.08;98.92;92287.41;4868445;29;20491;-90
2021/09/17 05:32:20;;;;;;;;;;;;;;;;;;;;;
2021/09/17 05:35:11;;;;;;;2.95;0.95;;;;;;;11.96;98.07;92245.22;4866007;29;20076;-91
2021/09/17 05:38:27;;;;;;;;;;;;;;;;;;;;;
2021/09/17 05:44:45;;;;;;;1.42;1.10;;;;;;;12.95;94.51;92295.69;4846178;29;20523;-92
2021/09/17 05:47:21;;;;;;;1.20;0.95;;;;;;;14.72;87.95;92266.06;4842203;29;20045;-92
2021/09/17 05:49:47;;;;;;;1.65;1.20;;;;;;;16.48;80.09;92284.84;4841345;29;20052;-92
2021/09/17 05:52:13;;;;;;;0.98;0.77;;;;;;;17.77;75.03;92267.69;4855380;29;20084;-91
2021/09/17 05:54:39;;;;;;;0.90;0.88;;;;;;;19.64;69.09;92275.72;4847633;29;20046;-91
2021/09/17 05:57:05;;;;;;;3.20;1.05;;;;;;;21.00;63.07;92287.03;4849327;29;20073;-92
2021/09/17 05:59:31;;;;;;;0.90;0.85;;;;;;;22.20;58.40;92272.38;4841454;29;20064;-93
2021/09/17 06:01:56;;;;;;;0.73;0.73;;;;;;;22.90;52.10;92286.09;4827941;29;20049;-94
2021/09/17 06:04:22;;;;;;;2.38;1.10;;;;;;;23.84;51.69;92279.53;4841505;29;20418;-92
2021/09/17 06:06:48;;;;;;;0.95;0.75;;;;;;;24.17;49.44;92288.50;4838833;29;20045;-94
2021/09/17 06:09:13;;;;;;;1.25;0.98;;;;;;;25.49;48.35;92278.06;4829204;29;20053;-91
2021/09/17 06:11:39;;;;;;;1.30;0.88;;;;;;;26.22;44.60;92279.47;4828642;29;20045;-91
2021/09/17 06:14:07;;;;;;;0.98;0.80;;;;;;;27.46;41.87;92260.34;4826545;29;20072;-91
2021/09/17 06:16:36;;;;;;;1.70;0.80;;;;;;;27.75;39.65;92276.22;4845732;29;20049;-91
2021/09/17 06:19:02;;;;;;;1.90;0.80;;;;;;;28.32;39.08;92269.47;4842573;29;20163;-92
2021/09/17 06:21:32;;;;;;;0.82;0.73;;;;;;;29.12;38.35;92240.38;4841013;29;20053;-92
2021/09/17 06:23:59;;;;;;;0.98;0.90;;;;;;;29.81;36.59;92281.22;4844519;29;20160;-91
2021/09/17 06:26:30;;;;;;;0.95;0.93;;;;;;;29.93;37.39;92267.16;4847219;29;20045;-93
2021/09/17 06:29:02;;;;;;;1.65;1.02;;;;;;;30.79;36.10;92270.88;4847951;29;20094;-91
2021/09/17 06:31:28;;;;;;;2.45;1.20;;;;;;;31.01;34.32;92259.66;4865762;29;20155;-92
2021/09/17 06:33:54;;;;;;;2.00;1.30;;;;;;;30.14;36.38;92270.63;4853743;29;20479;-92
2021/09/17 06:36:22;;;;;;;2.45;1.20;;;;;;;31.22;36.20;92272.66;4834855;29;20054;-92
2021/09/17 06:38:48;;;;;;;2.38;1.10;;;;;;;31.99;33.38;92251.50;4865561;29;20103;-91
2021/09/17 06:41:13;;;;;;;1.88;1.42;;;;;;;30.62;35.06;92262.00;4840610;29;20061;-92
2021/09/17 06:43:39;;;;;;;1.80;1.40;;;;;;;31.21;36.10;92275.78;4846679;29;20087;-92
2021/09/17 06:46:05;;;;;;;5.32;1.50;;;;;;;31.18;35.40;92279.34;4859292;29;20051;-91
2021/09/17 06:48:30;;;;;;;2.40;1.48;;;;;;;31.62;34.11;92264.41;4844757;29;20113;-91
2021/09/17 06:50:58;;;;;;;2.03;1.30;;;;;;;32.33;33.43;92282.69;4841730;29;20110;-91
2021/09/17 06:53:24;;;;;;;2.53;1.55;;;;;;;32.66;33.19;92280.66;4861318;29;20053;-92
2021/09/17 06:55:50;;;;;;;4.88;1.52;;;;;;;34.07;32.07;92275.16;4839624;29;20045;-91
2021/09/17 06:58:17;;;;;;;2.03;1.42;;;;;;;34.17;31.20;92274.03;4851071;29;20127;-91
2021/09/17 07:00:43;;;;;;;2.78;1.60;;;;;;;34.55;30.33;92280.50;4871953;29;20799;-91
2021/09/17 07:03:08;;;;;;;2.65;1.35;;;;;;;35.22;29.48;92271.09;4862842;29;20061;-91
2021/09/17 07:05:34;;;;;;;6.93;1.45;;;;;;;35.23;27.76;92269.88;4847705;29;20073;-90
2021/09/17 07:08:05;;;;;;;2.03;1.10;;;;;;;34.19;28.17;92263.50;4869566;29;20045;-90
2021/09/17 07:10:32;;;;;;;1.60;1.08;;;;;;;34.21;27.25;92263.81;4860207;29;20056;-91
2021/09/17 07:12:58;;;;;;;1.52;0.85;;;;;;;33.46;29.33;92260.84;4859882;29;20084;-92
2021/09/17 07:15:24;;;;;;;1.00;0.90;;;;;;;32.53;30.57;92261.66;4859734;29;20050;-91
2021/09/17 07:17:50;;;;;;;2.13;1.38;;;;;;;29.38;37.75;92263.06;4845626;29;20167;-90
2021/09/17 07:20:16;;;;;;;2.65;1.50;;;;;;;25.92;46.05;92261.19;4860539;29;20049;-90
2021/09/17 07:22:42;;;;;;;2.97;1.50;;;;;;;25.27;50.18;92266.59;4860123;29;20359;-90
2021/09/17 07:25:08;;;;;;;2.78;1.63;;;;;;;24.12;53.23;92265.56;4859648;29;20160;-91
2021/09/17 07:27:34;;;;;;;2.17;1.25;;;;;;;23.95;54.32;92266.25;4861217;29;20038;-90
2021/09/17 07:30:01;;;;;;;1.85;1.13;;;;;;;23.84;54.59;92266.94;4878774;29;20053;-90
2021/09/17 07:32:26;;;;;;;2.88;1.48;;;;;;;23.10;56.42;92257.28;4877649;29;20510;-91
2021/09/17 07:34:53;;;;;;;2.88;1.40;;;;;;;21.80;60.73;92252.47;4859687;29;20050;-92
2021/09/17 07:37:22;;;;;;;4.93;1.80;;;;;;;21.55;61.86;92278.03;4875233;29;20054;-92
2021/09/17 07:39:50;;;;;;;5.07;1.70;;;;;;;21.45;63.72;92268.75;4859955;29;20517;-90
2021/09/17 07:42:18;;;;;;;2.67;1.30;;;;;;;21.68;64.00;92268.66;4859437;29;20487;-90
2021/09/17 07:44:44;;;;;;;2.58;1.55;;;;;;;21.87;62.66;92283.00;4843507;29;20072;-90
2021/09/17 07:47:12;;;;;;;3.58;1.83;;;;;;;21.21;65.43;92288.53;4860603;29;20621;-91
2021/09/17 07:49:38;;;;;;;3.28;1.85;;;;;;;20.60;66.49;92268.88;4842698;29;20053;-91
2021/09/17 07:52:04;;;;;;;4.10;1.75;;;;;;;20.97;65.95;92290.41;4828641;29;20045;-90
2021/09/17 07:54:33;;;;;;;2.88;1.45;;;;;;;21.27;66.73;92279.09;4843857;29;20516;-91
2021/09/17 07:57:03;;;;;;;2.33;1.40;;;;;;;21.40;66.60;92259.16;4828748;29;20503;-89
2021/09/17 07:59:29;;;;;;;2.03;1.23;;;;;;;21.88;63.83;92282.63;4860876;29;20067;-90
2021/09/17 08:01:55;;;;;;;3.35;1.35;;;;;;;22.36;62.25;92282.09;4878879;29;20056;-91
2021/09/17 08:04:20;;;;;;;4.00;0.98;;;;;;;22.66;60.23;92282.78;4846852;29;20049;-90
2021/09/17 08:06:46;;;;;;;1.30;0.82;;;;;;;23.00;56.13;92269.41;4861781;29;20055;-90
2021/09/17 08:09:12;;;;;;;2.15;1.40;;;;;;;23.35;58.23;92286.06;4864327;29;20042;-90
2021/09/17 08:11:38;;;;;;;4.15;2.10;;;;;;;22.69;60.85;92261.84;4843338;29;20447;-90
2021/09/17 08:14:04;;;;;;;6.10;2.90;;;;;;;21.88;62.98;92289.88;4859860;29;20054;-90
2021/09/17 08:16:30;;;;;;;4.82;2.20;;;;;;;21.10;65.00;92245.00;4847428;29;20598;-90
2021/09/17 08:18:56;;;;;;;5.57;2.45;;;;;;;21.15;65.81;92273.97;4861793;29;20040;-89
2021/09/17 08:21:22;;;;;;;4.75;2.75;;;;;;;21.26;66.63;92276.81;4869028;29;20037;-91
2021/09/17 08:23:47;;;;;;;3.55;2.13;;;;;;;21.20;66.15;92293.06;4861062;29;20160;-90
2021/09/17 08:26:13;;;;;;;8.65;2.30;;;;;;;20.66;66.87;92285.34;4831313;29;20069;-89
2021/09/17 08:28:39;;;;;;;5.18;2.50;;;;;;;20.02;68.90;92293.63;4815830;29;20488;-89
2021/09/17 08:31:07;;;;;;;4.07;2.08;;;;;;;20.03;68.98;92286.41;4843468;29;20064;-90
2021/09/17 08:33:33;;;;;;;3.25;1.73;;;;;;;19.68;71.84;92293.28;4844348;29;20116;-90
2021/09/17 08:36:00;;;;;;;3.03;1.90;;;;;;;19.33;72.23;92309.94;4838207;29;20057;-90
2021/09/17 08:38:26;;;;;;;4.57;1.70;;;;;;;19.68;71.89;92297.78;4841820;29;20084;-89
2021/09/17 08:40:57;;;;;;;3.28;2.00;;;;;;;19.80;71.36;92304.91;4843662;29;20087;-89
2021/09/17 08:43:24;;;;;;;3.15;1.80;;;;;;;19.51;73.41;92305.03;4848128;29;20482;-90
2021/09/17 08:45:53;;;;;;;7.80;2.10;;;;;;;19.84;72.65;92308.41;4874042;29;20140;-90
2021/09/17 08:48:27;;;;;;;2.92;1.75;;;;;;;19.88;71.65;92314.56;4877329;29;20052;-89
2021/09/17 08:50:54;;;;;;;3.15;1.88;;;;;;;19.40;74.71;92308.56;4876227;29;20065;-91
2021/09/17 08:53:21;;;;;;;4.10;2.40;;;;;;;19.24;75.19;92317.31;4861902;29;20085;-90
2021/09/17 08:55:48;;;;;;;4.88;2.25;;;;;;;19.57;74.77;92305.53;4842534;29;20061;-92
2021/09/17 08:58:13;;;;;;;4.05;2.00;;;;;;;20.43;71.44;92320.59;4831953;29;20620;-90
2021/09/17 09:00:41;;;;;;;3.90;2.05;;;;;;;20.15;71.01;92303.00;4857618;29;20049;-91
2021/09/17 09:03:09;;;;;;;4.40;2.42;;;;;;;20.29;70.87;92313.13;4876358;29;20105;-90
2021/09/17 09:05:38;;;;;;;4.00;2.17;;;;;;;20.37;73.86;92320.09;4874854;29;20170;-91
2021/09/17 09:08:06;;;;;;;3.83;2.03;;;;;;;20.30;74.59;92317.31;4876315;29;20467;-90
2021/09/17 09:10:34;;;;;;;4.57;2.70;;;;;;;20.00;73.52;92319.00;4891839;29;20057;-89
2021/09/17 09:13:05;;;;;;;5.50;2.58;;;;;;;20.42;72.86;92318.28;4847829;29;20073;-90
2021/09/17 09:15:34;;;;;;;3.92;2.00;;;;;;;20.53;72.77;92319.25;4857590;29;20053;-90
2021/09/17 09:18:10;;;;;;;3.65;1.80;;;;;;;20.59;72.53;92323.97;4858109;29;20492;-90
2021/09/17 09:20:41;;;;;;;3.70;2.10;;;;;;;20.94;71.61;92311.63;4861189;29;20091;-89
2021/09/17 09:23:14;;;;;;;4.55;2.20;;;;;;;20.44;71.96;92321.34;4865083;29;20443;-92
2021/09/17 09:26:00;;;;;;;3.28;1.75;;;;;;;20.41;72.23;92322.84;4865381;29;20060;-92
2021/09/17 09:28:36;;;;;;;4.90;1.35;;;;;;;20.72;70.70;92303.31;4862325;29;20491;-89
2021/09/17 09:31:06;;;;;;;1.83;1.27;;;;;;;20.87;71.84;92314.19;4859120;29;20049;-90
2021/09/17 09:33:32;;;;;;;3.78;1.65;;;;;;;21.32;69.80;92321.41;4860880;29;20271;-89
2021/09/17 09:36:03;;;;;;;1.77;1.10;;;;;;;21.30;69.10;92322.88;4857762;29;20503;-89
2021/09/17 09:38:31;;;;;;;4.40;1.58;;;;;;;21.36;70.20;92326.78;4858626;29;20045;-91
2021/09/17 09:40:59;;;;;;;3.38;1.50;;;;;;;21.04;69.05;92320.94;4857794;29;20041;-90
2021/09/17 09:43:30;;;;;;;3.63;1.45;;;;;;;21.21;69.94;92307.16;4841651;29;20073;-91
2021/09/17 09:46:27;;;;;;;2.57;1.30;;;;;;;21.61;68.37;92311.94;4867988;29;20053;-90
2021/09/17 09:48:59;;;;;;;1.85;1.10;;;;;;;20.58;70.57;92314.47;4857751;29;20049;-89
2021/09/17 09:51:25;;;;;;;;;;;;;;;20.67;70.81;92314.25;4857895;29;20050;-91
2021/09/17 09:53:51;;;;;;;6.47;1.45;;;;;;;20.49;70.07;92307.78;4872995;29;19916;-90
2021/09/17 09:56:22;;;;;;;3.78;1.23;;;;;;;20.41;70.23;92301.56;4857631;29;20061;-90
2021/09/17 09:58:51;;;;;;;3.33;1.30;;;;;;;19.88;72.05;92306.59;4875879;29;20311;-90
2021/09/17 10:01:18;;;;;;;1.42;1.02;;;;;;;20.07;71.91;92311.94;4842128;29;20360;-89
2021/09/17 10:03:48;;;;;;;3.83;1.23;;;;;;;19.94;71.91;92289.25;4858072;29;20069;-90
2021/09/17 10:06:16;;;;;;;5.20;1.52;;;;;;;20.43;69.95;92295.91;4875151;29;20037;-89
2021/09/17 10:08:41;;;;;;;5.50;1.30;;;;;;;20.70;69.43;92307.44;4827644;29;20046;-90
2021/09/17 10:11:07;;;;;;;2.53;1.38;;;;;;;21.16;67.48;92297.56;4851472;29;20049;-89
2021/09/17 10:13:33;;;;;;;1.95;1.10;;;;;;;21.32;67.47;92294.78;4872297;29;20057;-90
2021/09/17 10:15:59;;;;;;;1.52;1.10;;;;;;;20.78;69.28;92298.44;4868972;29;20046;-89
2021/09/17 10:18:26;;;;;;;1.73;1.17;;;;;;;20.57;68.83;92312.91;4841500;29;20415;-91
2021/09/17 10:20:52;;;;;;;1.25;0.88;;;;;;;20.32;71.81;92293.03;4872402;29;20045;-90
2021/09/17 10:23:31;;;;;;;1.90;1.15;;;;;;;20.27;71.59;92286.13;4841900;29;20618;-89
2021/09/17 10:26:06;;;;;;;2.15;1.30;;;;;;;20.57;69.46;92291.63;4826465;29;20537;-91
2021/09/17 10:28:33;;;;;;;1.70;1.10;;;;;;;20.86;68.79;92299.34;4865808;29;20570;-91
2021/09/17 10:31:14;;;;;;;1.48;0.93;;;;;;;20.46;67.87;92277.34;4870700;29;20510;-90
2021/09/17 10:33:40;;;;;;;1.90;1.23;;;;;;;20.59;70.31;92301.94;4873899;29;20041;-90
2021/09/17 10:36:06;;;;;;;2.25;1.15;;;;;;;20.20;70.97;92299.28;4858156;29;20714;-90
2021/09/17 10:38:33;;;;;;;2.13;1.23;;;;;;;20.35;71.18;92300.31;4861898;29;20085;-89
2021/09/17 10:40:59;;;;;;;4.50;1.20;;;;;;;20.79;71.28;92305.31;4860782;29;20359;-89
2021/09/17 10:43:28;;;;;;;3.13;1.10;;;;;;;21.12;66.90;92306.59;4891046;29;20057;-90
2021/09/17 10:45:54;;;;;;;2.72;1.20;;;;;;;21.13;69.40;92305.50;4891819;29;20049;-89
2021/09/17 10:48:28;;;;;;;1.33;0.90;;;;;;;20.73;68.66;92312.81;4860059;29;20082;-91
2021/09/17 10:51:04;;;;;;;2.55;1.17;;;;;;;20.56;69.12;92300.75;4869430;29;20402;-89
2021/09/17 10:53:39;;;;;;;1.83;1.10;;;;;;;20.67;68.59;92313.44;4889437;29;20064;-88
2021/09/17 10:56:15;;;;;;;1.73;1.10;;;;;;;20.17;71.06;92284.00;4852481;29;20495;-90
2021/09/17 10:58:43;;;;;;;1.65;1.10;;;;;;;20.58;70.71;92303.81;4860351;29;20113;-90
2021/09/17 11:01:15;;;;;;;2.08;1.17;;;;;;;20.69;69.06;92316.53;4878771;29;20061;-89
2021/09/17 11:03:40;;;;;;;;;;;;;;;21.18;67.42;92326.50;4878989;29;20045;-93
2021/09/17 11:06:18;;;;;;;1.30;0.60;;;;;;;21.36;67.09;92319.53;4864325;29;19930;-89
2021/09/17 11:08:46;;;;;;;1.00;0.80;;;;;;;21.57;67.16;92311.16;4860767;29;20041;-90
2021/09/17 11:11:25;;;;;;;1.65;1.10;;;;;;;21.41;65.87;92319.28;4864270;29;20048;-89
2021/09/17 11:13:53;;;;;;;1.15;0.80;;;;;;;21.44;65.43;92317.03;4863389;29;20053;-89
2021/09/17 11:16:22;;;;;;;3.13;1.30;;;;;;;21.30;64.49;92318.34;4879201;29;20092;-91
2021/09/17 11:19:04;;;;;;;1.67;0.90;;;;;;;21.45;64.85;92300.69;4864648;29;20129;-90
2021/09/17 11:21:31;;;;;;;;;;;;;;;21.41;65.27;92308.63;4879364;29;20049;-89
2021/09/17 11:23:58;;;;;;;5.47;1.10;;;;;;;21.05;64.27;92299.28;4880823;29;19912;-90
2021/09/17 11:26:26;;;;;;;1.30;0.90;;;;;;;21.33;63.29;92269.69;4861432;29;20053;-92
2021/09/17 11:29:10;;;;;;;1.33;0.95;;;;;;;21.57;64.35;92299.72;4877182;29;20041;-91
2021/09/17 11:31:42;;;;;;;1.10;0.73;;;;;;;21.17;63.36;92293.03;4880061;29;20113;-91
2021/09/17 11:34:12;;;;;;;1.98;1.02;;;;;;;21.49;62.99;92287.44;4880317;29;20041;-92
2021/09/17 11:36:46;;;;;;;2.10;0.98;;;;;;;21.81;63.97;92293.97;4880170;29;20056;-91
2021/09/17 11:39:32;;;;;;;2.53;1.10;;;;;;;21.84;64.97;92271.16;4880187;29;20048;-90
2021/09/17 11:42:36;;;;;;;3.60;1.50;;;;;;;21.57;63.88;92273.88;4879976;29;20582;-91
2021/09/17 11:49:05;;;;;;;2.80;1.50;;;;;;;21.64;62.77;92262.56;4878502;29;20427;-91
2021/09/17 11:56:11;;;;;;;;;;;;;;;;;;;;;
2021/09/17 11:59:40;;;;;;;2.90;1.50;;;;;;;22.04;61.67;92242.47;4873136;29;20061;-92
2021/09/17 12:03:34;;;;;;;;;;;;;;;;;;;;;
2021/09/17 12:09:22;;;;;;;;;;;;;;;22.15;62.20;92263.94;4875236;29;20063;-93
2021/09/17 12:12:25;;;;;;;2.70;1.50;;;;;;;22.54;61.59;92269.72;4839813;29;19920;-91
2021/09/17 12:19:15;;;;;;;2.40;1.17;;;;;;;21.73;63.29;92228.41;4826801;29;20141;-92
2021/09/17 12:22:44;;;;;;;;;;;;;;;;;;;;;
2021/09/17 12:26:21;;;;;;;;;;;;;;;;;;;;;
2021/09/17 12:37:17;;;;;;;;;;;;;;;;;;;;;
2021/09/17 12:44:24;;;;;;;;;;;;;;;;;;;;;
2021/09/17 12:50:49;;;;;;;3.03;1.53;;;;;;;22.43;60.85;92202.19;4823636;29;20130;-93
2021/09/17 12:54:20;;;;;;;2.80;1.40;;;;;;;22.75;60.91;92237.13;4843022;29;20052;-93
2021/09/17 12:58:02;;;;;;;;;;;;;;;;;;;;;
2021/09/17 13:04:31;;;;;;;;;;;;;;;;;;;;;
2021/09/17 13:07:45;;;;;;;;;;;;;;;;;;;;;
2021/09/17 13:11:15;;;;;;;1.90;0.98;;;;;;;22.11;61.65;92188.47;4836789;29;20480;-93
2021/09/17 13:14:13;;;;;;;2.47;1.20;;;;;;;22.63;60.51;92221.41;4811775;29;20500;-91
2021/09/17 13:18:14;;;;;;;2.33;1.10;;;;;;;21.89;62.18;92192.84;4841531;29;20054;-93
2021/09/17 13:21:13;;;;;;;1.80;1.17;;;;;;;22.26;61.57;92200.09;4826142;29;20046;-93
2021/09/17 13:24:24;;;;;;;2.35;1.38;;;;;;;22.63;61.75;92187.50;4828646;29;20140;-92
2021/09/17 13:27:35;;;;;;;;;;;;;;;;;;;;;
2021/09/17 13:31:32;;;;;;;;;;;;;;;;;;;;;
2021/09/17 13:34:49;;;;;;;4.90;1.30;;;;;;;22.55;61.60;92201.13;4844450;29;20049;-92
2021/09/17 13:45:10;;;;;;;;;;;;;;;;;;;;;
2021/09/17 13:58:43;;;;;;;2.90;1.58;;;;;;;21.90;64.00;92157.81;4866627;29;20048;-91
2021/09/17 14:04:31;;;;;;;5.82;2.03;;;;;;;21.96;65.30;92155.59;4861872;29;20045;-91
2021/09/17 14:07:09;;;;;;;4.35;1.60;;;;;;;22.30;62.57;92153.69;4830402;29;20059;-91
2021/09/17 14:10:15;;;;;;;3.78;1.75;;;;;;;22.82;62.38;92161.72;4850763;29;20046;-91
2021/09/17 14:13:06;;;;;;;7.35;2.30;;;;;;;22.81;63.49;92184.22;4839951;29;20430;-90
2021/09/17 14:16:03;;;;;;;4.18;1.90;;;;;;;22.53;62.78;92150.81;4823492;29;20076;-91
2021/09/17 14:19:11;;;;;;;;;;;;;;;;;;;;;
2021/09/17 14:21:46;;;;;;;7.50;2.22;;;;;;;22.52;63.95;92149.31;4853200;29;20053;-92
2021/09/17 14:27:45;;;;;;;3.63;1.92;;;;;;;22.54;63.20;92147.03;4843803;29;20053;-90
2021/09/17 14:30:58;;;;;;;;;;;;;;;;;;;;;
2021/09/17 14:34:22;;;;;;;3.47;1.90;;;;;;;22.58;64.25;92192.41;4865520;29;20128;-90
2021/09/17 14:37:19;;;;;;;;;;;;;;;;;;;;;
2021/09/17 14:40:45;;;;;;;;;;;;;;;;;;;;;
2021/09/17 14:43:45;;;;;;;5.88;1.80;;;;;;;21.96;63.72;92150.28;4866396;29;20049;-91
2021/09/17 14:46:44;;;;;;;4.60;2.10;;;;;;;22.07;63.91;92139.72;4865999;29;20053;-89
2021/09/17 14:49:42;;;;;;;;;;;;;;;;;;;;;
2021/09/17 14:53:01;;;;;;;5.85;2.90;;;;;;;22.02;64.13;92138.91;4883425;29;20056;-89
2021/09/17 14:55:57;;;;;;;;;;;;;;;;;;;;;
2021/09/17 14:58:46;;;;;;;5.00;2.03;;;;;;;22.19;62.93;92152.78;4838168;29;20076;-90
2021/09/17 15:01:59;;;;;;;8.75;1.83;;;;;;;22.28;63.42;92187.16;4880253;29;20038;-89
2021/09/17 15:04:39;;;;;;;3.90;1.98;;;;;;;22.01;63.80;92150.69;4852712;29;20054;-91
2021/09/17 15:07:37;;;;;;;2.78;1.65;;;;;;;21.98;64.21;92153.34;4863457;29;20541;-90
2021/09/17 15:13:35;;;;;;;3.40;2.03;;;;;;;22.14;63.67;92139.78;4835846;29;20436;-91
2021/09/17 15:16:57;;;;;;;;;;;;;;;;;;;;;
2021/09/17 15:19:52;;;;;;;3.75;2.00;;;;;;;21.83;63.27;92142.50;4866584;29;20057;-92
2021/09/17 15:23:12;;;;;;;;;;;;;;;;;;;;;
2021/09/17 15:25:56;;;;;;;;;;;;;;;;;;;;;
2021/09/17 15:29:20;;;;;;;10.48;2.97;;;;;;;21.57;66.38;92177.22;4868989;29;20049;-90
2021/09/17 15:32:11;;;;;;;6.80;2.85;;;;;;;21.66;65.34;92137.00;4864149;29;20045;-91
2021/09/17 15:34:53;;;;;;;4.60;2.25;;;;;;;21.89;65.02;92139.53;4851164;29;20041;-89
2021/09/17 15:37:45;;;;;;;;;;;;;;;;;;;;;
2021/09/17 15:40:28;;;;;;;7.25;2.55;;;;;;;21.90;65.43;92152.47;4867730;29;20057;-90
2021/09/17 15:43:08;;;;;;;4.72;2.53;;;;;;;22.11;64.37;92151.16;4864298;29;20068;-90
2021/09/17 15:46:19;;;;;;;5.97;2.75;;;;;;;21.96;64.07;92150.28;4864607;29;20148;-89
2021/09/17 15:52:39;;;;;;;;;;;;;;;;;;;;;
2021/09/17 15:55:40;;;;;;;3.17;1.80;;;;;;;22.13;62.57;92141.66;4861856;29;20052;-94
2021/09/17 15:59:00;;;;;;;4.03;2.15;;;;;;;22.09;63.57;92194.19;4849813;29;20141;-94
2021/09/17 16:02:16;;;;;;;;;;;;;;;;;;;;;
2021/09/17 16:08:54;;;;;;;;;;;;;;;;;;;;;
2021/09/17 16:19:52;;;;;;;;;;;;;;;;;;;;;
2021/09/17 16:27:22;;;;;;;;;;;;;;;;;;;;;
2021/09/17 16:31:03;;;;;;;;;;;;;;;;;;;;;
2021/09/17 16:38:15;;;;;;;;;;;;;;;;;;;;;
2021/09/17 17:09:43;;;;;;;2.95;1.65;;;;;;;19.75;70.84;92223.63;4699185;30;20049;-93
2021/09/17 17:12:57;;;;;;;2.67;1.50;;;;;;;19.62;71.32;92219.53;4712769;30;20061;-94
2021/09/17 17:23:16;;;;;;;3.35;1.70;;;;;;;18.88;72.29;92175.13;4778991;29;20051;-94
2021/09/17 17:26:21;;;;;;;;;;;;;;;;;;;;;
2021/09/17 17:33:00;;;;;;;5.32;1.70;;;;;;;18.48;73.51;92182.13;4867059;29;20120;-92
2021/09/17 17:39:52;;;;;;;2.17;1.40;;;;;;;18.25;75.25;92189.16;4844880;29;20049;-93
2021/09/17 17:42:40;;;;;;;3.15;1.70;;;;;;;18.12;75.31;92190.31;4825141;29;20049;-95
2021/09/17 17:45:40;;;;;;;4.15;1.50;;;;;;;18.06;75.84;92197.75;4843011;29;20050;-93
2021/09/17 17:48:35;;;;;;;3.08;1.70;;;;;;;17.90;76.40;92189.78;4876593;29;20049;-94
2021/09/17 17:51:29;;;;;;;3.17;1.58;;;;;;;18.03;76.67;92225.66;4860312;29;20484;-94
2021/09/17 17:54:31;;;;;;;3.53;1.70;;;;;;;17.86;76.88;92215.38;4871194;29;20053;-95
2021/09/17 17:57:18;;;;;;;6.13;1.80;;;;;;;17.73;77.47;92216.50;4840145;29;20049;-94
2021/09/17 18:00:05;;;;;;;;;;;;;;;;;;;;;
2021/09/17 18:03:29;;;;;;;3.42;1.63;;;;;;;17.72;78.01;92236.13;4858710;29;20109;-94